sensor_id;sensor_type;location;lat;lon;timestamp;pressure;altitude;pressure_sealevel;temperature;humidity
68193;BME280;55012;47.562;18.414;2023-05-10T00:01:57;98838.84;;;12.28;100.00
68193;BME280;55012;47.562;18.414;2023-05-10T00:04:23;98963.41;;;12.41;100.00
68193;BME280;55012;47.562;18.414;2023-05-10T00:06:52;99188.44;;;12.53;100.00
68193;BME280;55012;47.562;18.414;2023-05-10T00:09:18;99450.47;;;12.70;100.00
68193;BME280;55012;47.562;18.414;2023-05-10T00:11:43;99682.53;;;12.76;100.00
68193;BME280;55012;47.562;18.414;2023-05-10T00:14:09;99914.63;;;12.82;100.00
68193;BME280;55012;47.562;18.414;2023-05-10T00:16:34;100112.84;;;12.82;100.00
68193;BME280;55012;47.562;18.414;2023-05-10T00:19:00;100198.25;;;12.72;100.00
68193;BME280;55012;47.562;18.414;2023-05-10T00:21:25;100098.88;;;12.47;100.00
68193;BME280;55012;47.562;18.414;2023-05-10T00:23:53;100048.84;;;12.23;100.00
68193;BME280;55012;47.562;18.414;2023-05-10T00:26:18;100159.81;;;12.16;100.00
68193;BME280;55012;47.562;18.414;2023-05-10T00:28:45;100292.59;;;12.13;100.00
68193;BME280;55012;47.562;18.414;2023-05-10T00:31:10;100451.81;;;12.21;100.00
68193;BME280;55012;47.562;18.414;2023-05-10T00:33:35;100593.50;;;12.35;100.00
68193;BME280;55012;47.562;18.414;2023-05-10T00:36:01;100715.44;;;12.40;100.00
68193;BME280;55012;47.562;18.414;2023-05-10T00:38:26;100802.13;;;12.45;100.00
68193;BME280;55012;47.562;18.414;2023-05-10T00:40:52;100834.69;;;12.45;100.00
68193;BME280;55012;47.562;18.414;2023-05-10T00:43:17;100788.22;;;12.29;100.00
68193;BME280;55012;47.562;18.414;2023-05-10T00:45:43;100741.13;;;12.08;100.00
68193;BME280;55012;47.562;18.414;2023-05-10T00:48:09;100792.97;;;12.06;100.00
68193;BME280;55012;47.562;18.414;2023-05-10T00:50:34;100810.03;;;11.98;100.00
68193;BME280;55012;47.562;18.414;2023-05-10T00:53:00;100837.50;;;12.05;100.00
68193;BME280;55012;47.562;18.414;2023-05-10T00:55:27;100868.97;;;12.15;100.00
68193;BME280;55012;47.562;18.414;2023-05-10T00:57:53;100834.81;;;12.14;100.00
68193;BME280;55012;47.562;18.414;2023-05-10T01:00:19;100813.09;;;12.05;100.00
68193;BME280;55012;47.562;18.414;2023-05-10T01:02:45;100787.38;;;11.94;100.00
68193;BME280;55012;47.562;18.414;2023-05-10T01:05:11;100801.75;;;11.95;100.00
68193;BME280;55012;47.562;18.414;2023-05-10T01:07:37;100814.34;;;11.99;100.00
68193;BME280;55012;47.562;18.414;2023-05-10T01:10:04;100824.09;;;12.00;100.00
68193;BME280;55012;47.562;18.414;2023-05-10T01:12:30;100795.03;;;11.92;100.00
68193;BME280;55012;47.562;18.414;2023-05-10T01:14:56;100808.41;;;11.89;100.00
68193;BME280;55012;47.562;18.414;2023-05-10T01:17:22;100776.59;;;11.72;100.00
68193;BME280;55012;47.562;18.414;2023-05-10T01:19:48;100766.03;;;11.53;100.00
68193;BME280;55012;47.562;18.414;2023-05-10T01:35:59;100870.53;;;11.68;100.00
68193;BME280;55012;47.562;18.414;2023-05-10T01:38:50;100868.09;;;11.66;100.00
68193;BME280;55012;47.562;18.414;2023-05-10T01:43:54;100892.03;;;11.64;100.00
68193;BME280;55012;47.562;18.414;2023-05-10T01:46:31;100886.38;;;11.52;100.00
68193;BME280;55012;47.562;18.414;2023-05-10T01:48:59;100885.81;;;11.41;100.00
68193;BME280;55012;47.562;18.414;2023-05-10T01:51:30;100867.38;;;11.21;100.00
68193;BME280;55012;47.562;18.414;2023-05-10T01:54:01;100877.00;;;11.05;100.00
68193;BME280;55012;47.562;18.414;2023-05-10T01:56:30;100929.72;;;11.07;100.00
68193;BME280;55012;47.562;18.414;2023-05-10T01:58:56;100953.13;;;11.03;100.00
68193;BME280;55012;47.562;18.414;2023-05-10T02:01:24;100969.00;;;10.96;100.00
68193;BME280;55012;47.562;18.414;2023-05-10T02:03:51;100984.13;;;10.97;100.00
68193;BME280;55012;47.562;18.414;2023-05-10T02:06:19;100917.97;;;10.89;100.00
68193;BME280;55012;47.562;18.414;2023-05-10T02:08:47;100840.06;;;10.86;100.00
68193;BME280;55012;47.562;18.414;2023-05-10T02:11:14;100699.47;;;10.90;100.00
68193;BME280;55012;47.562;18.414;2023-05-10T02:13:40;100602.97;;;10.94;100.00
68193;BME280;55012;47.562;18.414;2023-05-10T02:16:07;100572.84;;;10.87;100.00
68193;BME280;55012;47.562;18.414;2023-05-10T02:18:34;100541.13;;;10.79;100.00
68193;BME280;55012;47.562;18.414;2023-05-10T02:21:02;100339.56;;;10.93;100.00
68193;BME280;55012;47.562;18.414;2023-05-10T02:23:29;100299.25;;;11.01;100.00
68193;BME280;55012;47.562;18.414;2023-05-10T02:25:57;100299.72;;;11.11;100.00
68193;BME280;55012;47.562;18.414;2023-05-10T02:28:24;100300.50;;;11.20;100.00
68193;BME280;55012;47.562;18.414;2023-05-10T02:30:51;100304.91;;;11.34;100.00
68193;BME280;55012;47.562;18.414;2023-05-10T02:33:18;100294.03;;;11.51;100.00
68193;BME280;55012;47.562;18.414;2023-05-10T02:35:46;100306.75;;;11.59;100.00
68193;BME280;55012;47.562;18.414;2023-05-10T02:38:13;100332.53;;;11.65;100.00
68193;BME280;55012;47.562;18.414;2023-05-10T02:40:40;100364.75;;;11.58;100.00
68193;BME280;55012;47.562;18.414;2023-05-10T02:43:09;100353.06;;;11.84;100.00
68193;BME280;55012;47.562;18.414;2023-05-10T02:45:38;100370.22;;;11.96;100.00
68193;BME280;55012;47.562;18.414;2023-05-10T02:48:04;100401.59;;;12.06;100.00
68193;BME280;55012;47.562;18.414;2023-05-10T02:50:32;100443.09;;;12.06;100.00
68193;BME280;55012;47.562;18.414;2023-05-10T02:53:06;100575.53;;;11.87;100.00
68193;BME280;55012;47.562;18.414;2023-05-10T02:55:40;100615.75;;;11.85;100.00
68193;BME280;55012;47.562;18.414;2023-05-10T02:58:06;100657.97;;;11.77;100.00
68193;BME280;55012;47.562;18.414;2023-05-10T03:00:31;100700.34;;;11.65;100.00
68193;BME280;55012;47.562;18.414;2023-05-10T03:02:57;100695.91;;;11.60;100.00
68193;BME280;55012;47.562;18.414;2023-05-10T03:05:23;100674.50;;;11.50;100.00
68193;BME280;55012;47.562;18.414;2023-05-10T03:07:48;100644.06;;;11.44;100.00
68193;BME280;55012;47.562;18.414;2023-05-10T03:10:15;100584.13;;;11.46;100.00
68193;BME280;55012;47.562;18.414;2023-05-10T03:16:05;100553.63;;;11.14;100.00
68193;BME280;55012;47.562;18.414;2023-05-10T03:18:55;100500.72;;;11.08;100.00
68193;BME280;55012;47.562;18.414;2023-05-10T03:21:25;100480.97;;;10.90;100.00
68193;BME280;55012;47.562;18.414;2023-05-10T03:23:59;100450.69;;;10.80;100.00
68193;BME280;55012;47.562;18.414;2023-05-10T03:26:27;100400.03;;;10.54;100.00
68193;BME280;55012;47.562;18.414;2023-05-10T03:28:54;100375.47;;;10.33;100.00
68193;BME280;55012;47.562;18.414;2023-05-10T03:31:20;100344.53;;;10.17;100.00
68193;BME280;55012;47.562;18.414;2023-05-10T03:33:50;100326.56;;;10.04;100.00
68193;BME280;55012;47.562;18.414;2023-05-10T03:36:16;100297.56;;;9.87;100.00
68193;BME280;55012;47.562;18.414;2023-05-10T03:38:42;100200.13;;;11.17;100.00
68193;BME280;55012;47.562;18.414;2023-05-10T03:41:07;100143.91;;;13.94;100.00
68193;BME280;55012;47.562;18.414;2023-05-10T03:43:33;100328.41;;;15.85;100.00
68193;BME280;55012;47.562;18.414;2023-05-10T03:46:00;100747.00;;;16.48;100.00
68193;BME280;55012;47.562;18.414;2023-05-10T03:48:26;99992.38;;;16.74;100.00
68193;BME280;55012;47.562;18.414;2023-05-10T03:50:51;99542.81;;;16.40;100.00
68193;BME280;55012;47.562;18.414;2023-05-10T03:53:17;99288.69;;;16.77;100.00
68193;BME280;55012;47.562;18.414;2023-05-10T03:55:42;98965.72;;;17.50;100.00
68193;BME280;55012;47.562;18.414;2023-05-10T03:58:10;98736.19;;;17.77;100.00
68193;BME280;55012;47.562;18.414;2023-05-10T04:00:36;98609.56;;;17.76;100.00
68193;BME280;55012;47.562;18.414;2023-05-10T04:03:02;98574.00;;;17.76;100.00
68193;BME280;55012;47.562;18.414;2023-05-10T04:05:27;98556.50;;;17.66;100.00
68193;BME280;55012;47.562;18.414;2023-05-10T04:07:53;98579.06;;;17.40;100.00
68193;BME280;55012;47.562;18.414;2023-05-10T04:10:18;98583.78;;;17.36;100.00
68193;BME280;55012;47.562;18.414;2023-05-10T04:12:44;98608.84;;;17.31;100.00
68193;BME280;55012;47.562;18.414;2023-05-10T04:15:09;98603.91;;;17.56;100.00
68193;BME280;55012;47.562;18.414;2023-05-10T04:17:35;98567.22;;;17.88;100.00
68193;BME280;55012;47.562;18.414;2023-05-10T04:20:00;98537.78;;;17.95;100.00
68193;BME280;55012;47.562;18.414;2023-05-10T04:22:26;98518.97;;;18.01;100.00
68193;BME280;55012;47.562;18.414;2023-05-10T04:24:52;98507.22;;;18.04;100.00
68193;BME280;55012;47.562;18.414;2023-05-10T04:27:18;98497.03;;;18.05;100.00
68193;BME280;55012;47.562;18.414;2023-05-10T04:29:43;98503.22;;;17.78;100.00
68193;BME280;55012;47.562;18.414;2023-05-10T04:32:09;98514.41;;;17.91;100.00
68193;BME280;55012;47.562;18.414;2023-05-10T04:34:36;98516.69;;;17.96;100.00
68193;BME280;55012;47.562;18.414;2023-05-10T04:37:01;98530.69;;;17.67;100.00
68193;BME280;55012;47.562;18.414;2023-05-10T04:39:27;98533.78;;;17.69;100.00
68193;BME280;55012;47.562;18.414;2023-05-10T04:41:52;98537.78;;;17.65;100.00
68193;BME280;55012;47.562;18.414;2023-05-10T04:44:18;98549.94;;;17.23;100.00
68193;BME280;55012;47.562;18.414;2023-05-10T04:46:43;98572.72;;;17.09;100.00
68193;BME280;55012;47.562;18.414;2023-05-10T04:49:08;98592.16;;;16.70;100.00
68193;BME280;55012;47.562;18.414;2023-05-10T04:51:34;98605.19;;;17.00;100.00
68193;BME280;55012;47.562;18.414;2023-05-10T04:53:59;98600.75;;;17.17;100.00
68193;BME280;55012;47.562;18.414;2023-05-10T04:56:25;98581.34;;;17.45;100.00
68193;BME280;55012;47.562;18.414;2023-05-10T04:58:51;98571.97;;;17.46;100.00
68193;BME280;55012;47.562;18.414;2023-05-10T05:01:16;98580.34;;;17.28;100.00
68193;BME280;55012;47.562;18.414;2023-05-10T05:03:42;98579.78;;;17.06;100.00
68193;BME280;55012;47.562;18.414;2023-05-10T05:06:07;98594.41;;;17.30;100.00
68193;BME280;55012;47.562;18.414;2023-05-10T05:08:33;98592.81;;;17.33;100.00
68193;BME280;55012;47.562;18.414;2023-05-10T05:10:58;98582.72;;;17.64;100.00
68193;BME280;55012;47.562;18.414;2023-05-10T05:13:24;98587.75;;;17.31;100.00
68193;BME280;55012;47.562;18.414;2023-05-10T05:15:50;98592.22;;;17.52;100.00
68193;BME280;55012;47.562;18.414;2023-05-10T05:18:15;98591.88;;;17.84;100.00
68193;BME280;55012;47.562;18.414;2023-05-10T05:20:41;98598.19;;;17.81;100.00
68193;BME280;55012;47.562;18.414;2023-05-10T05:23:06;98601.47;;;18.00;100.00
68193;BME280;55012;47.562;18.414;2023-05-10T05:25:32;98607.97;;;17.79;100.00
68193;BME280;55012;47.562;18.414;2023-05-10T05:27:57;98600.75;;;17.58;100.00
68193;BME280;55012;47.562;18.414;2023-05-10T05:30:22;98594.53;;;17.54;100.00
68193;BME280;55012;47.562;18.414;2023-05-10T05:32:48;98603.19;;;17.86;100.00
68193;BME280;55012;47.562;18.414;2023-05-10T05:35:13;98621.81;;;17.99;100.00
68193;BME280;55012;47.562;18.414;2023-05-10T05:37:39;98633.09;;;18.04;100.00
68193;BME280;55012;47.562;18.414;2023-05-10T05:40:05;98633.53;;;17.99;100.00
68193;BME280;55012;47.562;18.414;2023-05-10T05:42:31;98641.47;;;18.24;100.00
68193;BME280;55012;47.562;18.414;2023-05-10T05:44:57;98651.03;;;18.09;100.00
68193;BME280;55012;47.562;18.414;2023-05-10T05:47:22;98647.78;;;18.17;100.00
68193;BME280;55012;47.562;18.414;2023-05-10T05:49:48;98657.81;;;18.28;100.00
68193;BME280;55012;47.562;18.414;2023-05-10T05:52:13;98675.94;;;18.18;100.00
68193;BME280;55012;47.562;18.414;2023-05-10T05:54:39;98664.72;;;18.09;100.00
68193;BME280;55012;47.562;18.414;2023-05-10T05:57:04;98663.31;;;17.93;100.00
68193;BME280;55012;47.562;18.414;2023-05-10T05:59:30;98666.38;;;17.99;100.00
68193;BME280;55012;47.562;18.414;2023-05-10T06:01:55;98648.28;;;17.75;100.00
68193;BME280;55012;47.562;18.414;2023-05-10T06:04:21;98662.50;;;17.96;100.00
68193;BME280;55012;47.562;18.414;2023-05-10T06:06:46;98688.91;;;18.14;100.00
68193;BME280;55012;47.562;18.414;2023-05-10T06:09:12;98689.00;;;18.03;100.00
68193;BME280;55012;47.562;18.414;2023-05-10T06:11:38;98688.22;;;18.06;100.00
68193;BME280;55012;47.562;18.414;2023-05-10T06:14:04;98706.81;;;18.22;100.00
68193;BME280;55012;47.562;18.414;2023-05-10T06:16:32;98721.22;;;18.26;100.00
68193;BME280;55012;47.562;18.414;2023-05-10T06:18:57;98734.78;;;18.37;100.00
68193;BME280;55012;47.562;18.414;2023-05-10T06:21:22;98744.47;;;18.45;100.00
68193;BME280;55012;47.562;18.414;2023-05-10T06:23:48;98745.44;;;18.28;100.00
68193;BME280;55012;47.562;18.414;2023-05-10T06:26:13;98747.41;;;18.27;100.00
68193;BME280;55012;47.562;18.414;2023-05-10T06:28:39;98732.84;;;18.00;100.00
68193;BME280;55012;47.562;18.414;2023-05-10T06:31:06;98739.72;;;18.15;100.00
68193;BME280;55012;47.562;18.414;2023-05-10T06:33:31;98761.56;;;18.22;100.00
68193;BME280;55012;47.562;18.414;2023-05-10T06:35:57;98783.47;;;18.22;100.00
68193;BME280;55012;47.562;18.414;2023-05-10T06:38:25;98792.34;;;18.33;100.00
68193;BME280;55012;47.562;18.414;2023-05-10T06:40:51;98812.63;;;18.36;100.00
68193;BME280;55012;47.562;18.414;2023-05-10T06:43:17;98832.16;;;18.41;100.00
68193;BME280;55012;47.562;18.414;2023-05-10T06:45:43;98836.09;;;18.37;100.00
68193;BME280;55012;47.562;18.414;2023-05-10T06:48:08;98839.00;;;18.22;100.00
68193;BME280;55012;47.562;18.414;2023-05-10T06:50:34;98821.97;;;18.01;100.00
68193;BME280;55012;47.562;18.414;2023-05-10T06:53:00;98776.75;;;17.85;100.00
68193;BME280;55012;47.562;18.414;2023-05-10T06:55:27;98779.03;;;17.94;100.00
68193;BME280;55012;47.562;18.414;2023-05-10T06:57:52;98814.25;;;18.33;100.00
68193;BME280;55012;47.562;18.414;2023-05-10T07:00:18;98841.50;;;18.47;100.00
68193;BME280;55012;47.562;18.414;2023-05-10T07:02:44;98880.03;;;18.67;100.00
68193;BME280;55012;47.562;18.414;2023-05-10T07:05:09;98898.59;;;18.49;100.00
68193;BME280;55012;47.562;18.414;2023-05-10T07:07:35;98852.50;;;18.40;100.00
68193;BME280;55012;47.562;18.414;2023-05-10T07:10:01;98896.09;;;18.62;100.00
68193;BME280;55012;47.562;18.414;2023-05-10T07:12:27;98905.50;;;18.61;100.00
68193;BME280;55012;47.562;18.414;2023-05-10T07:14:52;98924.69;;;18.61;100.00
68193;BME280;55012;47.562;18.414;2023-05-10T07:17:18;98927.19;;;18.44;100.00
68193;BME280;55012;47.562;18.414;2023-05-10T07:19:44;98897.22;;;18.30;100.00
68193;BME280;55012;47.562;18.414;2023-05-10T07:22:09;98894.03;;;18.35;100.00
68193;BME280;55012;47.562;18.414;2023-05-10T07:24:35;98875.56;;;17.98;100.00
68193;BME280;55012;47.562;18.414;2023-05-10T07:27:00;98833.03;;;17.86;100.00
68193;BME280;55012;47.562;18.414;2023-05-10T07:29:26;98825.13;;;17.95;100.00
68193;BME280;55012;47.562;18.414;2023-05-10T07:31:51;98872.53;;;18.34;100.00
68193;BME280;55012;47.562;18.414;2023-05-10T07:34:17;98900.19;;;18.46;100.00
68193;BME280;55012;47.562;18.414;2023-05-10T07:36:42;98945.00;;;18.70;100.00
68193;BME280;55012;47.562;18.414;2023-05-10T07:39:09;98949.03;;;18.51;100.00
68193;BME280;55012;47.562;18.414;2023-05-10T07:41:35;98955.72;;;18.50;100.00
68193;BME280;55012;47.562;18.414;2023-05-10T07:44:00;98960.00;;;18.55;100.00
68193;BME280;55012;47.562;18.414;2023-05-10T07:46:26;98954.94;;;18.50;100.00
68193;BME280;55012;47.562;18.414;2023-05-10T07:48:51;98974.75;;;18.68;100.00
68193;BME280;55012;47.562;18.414;2023-05-10T07:51:17;99002.16;;;18.65;100.00
68193;BME280;55012;47.562;18.414;2023-05-10T07:53:42;99026.75;;;18.75;100.00
68193;BME280;55012;47.562;18.414;2023-05-10T07:56:24;99032.72;;;18.63;100.00
68193;BME280;55012;47.562;18.414;2023-05-10T07:58:51;99007.34;;;18.56;100.00
68193;BME280;55012;47.562;18.414;2023-05-10T08:01:17;99015.59;;;18.48;100.00
68193;BME280;55012;47.562;18.414;2023-05-10T08:03:42;99017.56;;;18.48;100.00
68193;BME280;55012;47.562;18.414;2023-05-10T08:06:08;99028.53;;;18.44;100.00
68193;BME280;55012;47.562;18.414;2023-05-10T08:08:33;99001.59;;;18.36;100.00
68193;BME280;55012;47.562;18.414;2023-05-10T08:10:59;99039.44;;;18.55;100.00
68193;BME280;55012;47.562;18.414;2023-05-10T08:13:24;99064.81;;;18.63;100.00
68193;BME280;55012;47.562;18.414;2023-05-10T08:15:49;99074.56;;;18.71;100.00
68193;BME280;55012;47.562;18.414;2023-05-10T08:18:18;99097.59;;;18.80;100.00
68193;BME280;55012;47.562;18.414;2023-05-10T08:20:43;99129.22;;;18.92;100.00
68193;BME280;55012;47.562;18.414;2023-05-10T08:23:09;99164.47;;;18.90;100.00
68193;BME280;55012;47.562;18.414;2023-05-10T08:25:34;99142.63;;;18.76;100.00
68193;BME280;55012;47.562;18.414;2023-05-10T08:28:00;99137.94;;;18.76;100.00
68193;BME280;55012;47.562;18.414;2023-05-10T08:30:25;99171.09;;;18.93;100.00
68193;BME280;55012;47.562;18.414;2023-05-10T08:32:51;99185.94;;;18.99;100.00
68193;BME280;55012;47.562;18.414;2023-05-10T08:35:16;99211.38;;;19.03;100.00
68193;BME280;55012;47.562;18.414;2023-05-10T08:37:42;99229.84;;;18.95;100.00
68193;BME280;55012;47.562;18.414;2023-05-10T08:40:08;99225.88;;;19.00;100.00
68193;BME280;55012;47.562;18.414;2023-05-10T08:42:39;99250.16;;;19.05;100.00
68193;BME280;55012;47.562;18.414;2023-05-10T08:45:07;99256.47;;;18.95;100.00
68193;BME280;55012;47.562;18.414;2023-05-10T08:47:35;99254.91;;;18.94;100.00
68193;BME280;55012;47.562;18.414;2023-05-10T08:50:02;99268.59;;;18.97;100.00
68193;BME280;55012;47.562;18.414;2023-05-10T08:52:28;99299.53;;;18.94;100.00
68193;BME280;55012;47.562;18.414;2023-05-10T08:54:55;99317.59;;;18.88;100.00
68193;BME280;55012;47.562;18.414;2023-05-10T08:57:20;99326.97;;;18.91;100.00
68193;BME280;55012;47.562;18.414;2023-05-10T08:59:46;99323.50;;;18.83;100.00
68193;BME280;55012;47.562;18.414;2023-05-10T09:02:13;99345.00;;;18.85;100.00
68193;BME280;55012;47.562;18.414;2023-05-10T09:04:39;99366.09;;;19.05;100.00
68193;BME280;55012;47.562;18.414;2023-05-10T09:07:05;99407.94;;;19.17;100.00
68193;BME280;55012;47.562;18.414;2023-05-10T09:09:31;99382.09;;;19.18;100.00
68193;BME280;55012;47.562;18.414;2023-05-10T09:11:56;99410.63;;;19.27;100.00
68193;BME280;55012;47.562;18.414;2023-05-10T09:14:23;99422.00;;;19.26;100.00
68193;BME280;55012;47.562;18.414;2023-05-10T09:16:50;99324.81;;;19.30;100.00
68193;BME280;55012;47.562;18.414;2023-05-10T09:19:16;99329.44;;;19.41;100.00
68193;BME280;55012;47.562;18.414;2023-05-10T09:21:41;99331.81;;;19.39;100.00
68193;BME280;55012;47.562;18.414;2023-05-10T09:24:08;99329.09;;;19.35;100.00
68193;BME280;55012;47.562;18.414;2023-05-10T09:26:34;99349.81;;;19.43;100.00
68193;BME280;55012;47.562;18.414;2023-05-10T09:29:01;99354.88;;;19.48;100.00
68193;BME280;55012;47.562;18.414;2023-05-10T09:31:47;99357.25;;;19.46;100.00
68193;BME280;55012;47.562;18.414;2023-05-10T09:34:33;99345.50;;;19.42;100.00
68193;BME280;55012;47.562;18.414;2023-05-10T09:37:02;99364.25;;;19.54;100.00
68193;BME280;55012;47.562;18.414;2023-05-10T09:39:33;99369.34;;;19.56;100.00
68193;BME280;55012;47.562;18.414;2023-05-10T09:41:59;99378.75;;;19.51;100.00
68193;BME280;55012;47.562;18.414;2023-05-10T09:44:26;99394.03;;;19.52;100.00
68193;BME280;55012;47.562;18.414;2023-05-10T09:46:52;99408.56;;;19.53;100.00
68193;BME280;55012;47.562;18.414;2023-05-10T09:49:21;99419.53;;;19.53;100.00
68193;BME280;55012;47.562;18.414;2023-05-10T09:51:47;99414.81;;;19.60;100.00
68193;BME280;55012;47.562;18.414;2023-05-10T09:54:24;99432.84;;;19.58;100.00
68193;BME280;55012;47.562;18.414;2023-05-10T09:56:50;99430.91;;;19.55;100.00
68193;BME280;55012;47.562;18.414;2023-05-10T09:59:15;99448.16;;;19.52;100.00
68193;BME280;55012;47.562;18.414;2023-05-10T10:01:49;99459.97;;;19.45;100.00
68193;BME280;55012;47.562;18.414;2023-05-10T10:04:15;99466.22;;;19.42;100.00
68193;BME280;55012;47.562;18.414;2023-05-10T10:06:41;99451.34;;;19.36;100.00
68193;BME280;55012;47.562;18.414;2023-05-10T10:09:07;99454.50;;;19.34;100.00
68193;BME280;55012;47.562;18.414;2023-05-10T10:11:37;99459.97;;;19.34;100.00
68193;BME280;55012;47.562;18.414;2023-05-10T10:14:04;99478.31;;;19.52;100.00
68193;BME280;55012;47.562;18.414;2023-05-10T10:16:30;99485.41;;;19.56;100.00
68193;BME280;55012;47.562;18.414;2023-05-10T10:18:57;99494.78;;;19.55;100.00
68193;BME280;55012;47.562;18.414;2023-05-10T10:21:23;99451.66;;;19.52;100.00
68193;BME280;55012;47.562;18.414;2023-05-10T10:23:49;99455.22;;;19.53;100.00
68193;BME280;55012;47.562;18.414;2023-05-10T10:26:16;99455.59;;;19.51;100.00
68193;BME280;55012;47.562;18.414;2023-05-10T10:31:23;99458.38;;;19.44;100.00
68193;BME280;55012;47.562;18.414;2023-05-10T10:33:59;99470.97;;;19.38;100.00
68193;BME280;55012;47.562;18.414;2023-05-10T10:36:25;99474.84;;;19.41;100.00
68193;BME280;55012;47.562;18.414;2023-05-10T10:38:55;99465.41;;;19.49;100.00
68193;BME280;55012;47.562;18.414;2023-05-10T10:41:33;99494.38;;;19.60;100.00
68193;BME280;55012;47.562;18.414;2023-05-10T10:52:25;99535.56;;;19.53;100.00
68193;BME280;55012;47.562;18.414;2023-05-10T10:54:59;99503.03;;;19.52;100.00
68193;BME280;55012;47.562;18.414;2023-05-10T10:57:26;99505.41;;;19.53;100.00
68193;BME280;55012;47.562;18.414;2023-05-10T11:02:48;99515.13;;;19.69;100.00
68193;BME280;55012;47.562;18.414;2023-05-10T11:05:25;99513.56;;;19.71;100.00
68193;BME280;55012;47.562;18.414;2023-05-10T11:07:55;99513.53;;;19.78;100.00
68193;BME280;55012;47.562;18.414;2023-05-10T11:10:25;99516.31;;;19.71;100.00
68193;BME280;55012;47.562;18.414;2023-05-10T11:13:07;99518.69;;;19.66;100.00
68193;BME280;55012;47.562;18.414;2023-05-10T11:15:38;99526.91;;;19.66;100.00
68193;BME280;55012;47.562;18.414;2023-05-10T11:18:17;99545.72;;;19.71;100.00
68193;BME280;55012;47.562;18.414;2023-05-10T11:20:44;99539.47;;;19.67;100.00
68193;BME280;55012;47.562;18.414;2023-05-10T11:23:15;99553.19;;;19.67;100.00
68193;BME280;55012;47.562;18.414;2023-05-10T11:25:45;99546.50;;;19.68;100.00
68193;BME280;55012;47.562;18.414;2023-05-10T11:28:12;99541.03;;;19.68;100.00
68193;BME280;55012;47.562;18.414;2023-05-10T11:30:41;99532.00;;;19.71;100.00
68193;BME280;55012;47.562;18.414;2023-05-10T11:33:08;99533.53;;;19.75;100.00
68193;BME280;55012;47.562;18.414;2023-05-10T11:35:38;99535.84;;;19.87;100.00
68193;BME280;55012;47.562;18.414;2023-05-10T11:38:08;99529.16;;;19.88;100.00
68193;BME280;55012;47.562;18.414;2023-05-10T11:40:37;99530.34;;;19.87;100.00
68193;BME280;55012;47.562;18.414;2023-05-10T11:43:03;99536.97;;;19.93;100.00
68193;BME280;55012;47.562;18.414;2023-05-10T11:45:32;99537.75;;;19.94;100.00
68193;BME280;55012;47.562;18.414;2023-05-10T11:47:58;99516.22;;;19.89;100.00
68193;BME280;55012;47.562;18.414;2023-05-10T11:50:24;99521.72;;;19.89;100.00
68193;BME280;55012;47.562;18.414;2023-05-10T11:52:55;99512.69;;;19.88;100.00
68193;BME280;55012;47.562;18.414;2023-05-10T11:55:21;99508.44;;;19.80;100.00
68193;BME280;55012;47.562;18.414;2023-05-10T11:57:47;99510.00;;;19.81;100.00
68193;BME280;55012;47.562;18.414;2023-05-10T12:00:13;99511.94;;;19.81;100.00
68193;BME280;55012;47.562;18.414;2023-05-10T12:02:39;99505.25;;;19.85;100.00
68193;BME280;55012;47.562;18.414;2023-05-10T12:05:05;99502.50;;;19.89;100.00
68193;BME280;55012;47.562;18.414;2023-05-10T12:07:32;99495.84;;;19.86;100.00
68193;BME280;55012;47.562;18.414;2023-05-10T12:12:46;99482.84;;;19.94;100.00
68193;BME280;55012;47.562;18.414;2023-05-10T12:15:23;99465.25;;;19.88;100.00
68193;BME280;55012;47.562;18.414;2023-05-10T12:17:50;99475.94;;;19.72;100.00
68193;BME280;55012;47.562;18.414;2023-05-10T12:20:22;99486.47;;;19.80;100.00
68193;BME280;55012;47.562;18.414;2023-05-10T12:22:52;99486.72;;;20.00;100.00
68193;BME280;55012;47.562;18.414;2023-05-10T12:25:21;99491.34;;;20.14;100.00
68193;BME280;55012;47.562;18.414;2023-05-10T12:27:57;99481.84;;;20.26;100.00
68193;BME280;55012;47.562;18.414;2023-05-10T12:30:26;99479.03;;;20.36;100.00
68193;BME280;55012;47.562;18.414;2023-05-10T12:32:53;99478.69;;;20.27;100.00
68193;BME280;55012;47.562;18.414;2023-05-10T12:35:19;99478.34;;;20.22;100.00
68193;BME280;55012;47.562;18.414;2023-05-10T12:37:50;99472.41;;;20.27;100.00
68193;BME280;55012;47.562;18.414;2023-05-10T12:40:16;99477.53;;;20.25;100.00
68193;BME280;55012;47.562;18.414;2023-05-10T12:42:41;99470.91;;;20.18;100.00
68193;BME280;55012;47.562;18.414;2023-05-10T12:45:08;99475.66;;;20.14;100.00
68193;BME280;55012;47.562;18.414;2023-05-10T12:47:34;99465.13;;;20.02;100.00
68193;BME280;55012;47.562;18.414;2023-05-10T12:50:00;99464.03;;;19.92;100.00
68193;BME280;55012;47.562;18.414;2023-05-10T12:52:27;99461.28;;;19.92;100.00
68193;BME280;55012;47.562;18.414;2023-05-10T12:54:53;99458.84;;;20.02;100.00
68193;BME280;55012;47.562;18.414;2023-05-10T12:57:19;99450.94;;;20.14;100.00
68193;BME280;55012;47.562;18.414;2023-05-10T12:59:45;99456.78;;;20.20;100.00
68193;BME280;55012;47.562;18.414;2023-05-10T13:02:10;99449.19;;;20.35;100.00
68193;BME280;55012;47.562;18.414;2023-05-10T13:04:36;99455.44;;;20.39;100.00
68193;BME280;55012;47.562;18.414;2023-05-10T13:07:08;99448.19;;;20.14;100.00
68193;BME280;55012;47.562;18.414;2023-05-10T13:09:34;99432.91;;;20.10;100.00
68193;BME280;55012;47.562;18.414;2023-05-10T13:12:00;99442.53;;;20.36;100.00
68193;BME280;55012;47.562;18.414;2023-05-10T13:14:26;99441.22;;;20.51;100.00